Time;durP1;ratioP1;P1;durP2;ratioP2;P2;SDS_P1;SDS_P2;PMS_P1;PMS_P2;Temp;Humidity;BMP_temperature;BMP_pressure;BME280_temperature;BME280_humidity;BME280_pressure;Samples;Min_cycle;Max_cycle;Signal;HPM_P1;HPM_P2
2023/06/13 04:32:33;;;;;;;;;30.25;27.75;;;;;21.23;68.73;100652.19;4298286;25;45535;-80
2023/06/13 04:34:58;;;;;;;;;25.75;24.75;;;;;21.21;69.10;100654.19;5053074;28;45227;-78
2023/06/13 04:37:25;;;;;;;;;32.50;27.75;;;;;21.17;68.68;100644.59;5041052;28;45420;-77
2023/06/13 04:39:55;;;;;;;;;26.25;22.75;;;;;21.25;68.78;100652.06;5034877;28;45526;-79
2023/06/13 04:42:27;;;;;;;;;27.00;23.00;;;;;21.19;68.45;100641.69;5033748;28;45383;-78
2023/06/13 04:44:52;;;;;;;;;26.75;23.75;;;;;21.21;68.79;100656.91;5035263;28;45390;-78
2023/06/13 04:47:19;;;;;;;;;30.00;26.50;;;;;21.18;68.63;100654.47;5034873;28;46011;-78
2023/06/13 04:49:46;;;;;;;;;24.50;23.50;;;;;21.08;68.62;100632.63;5034991;28;45389;-77
2023/06/13 04:52:14;;;;;;;;;25.75;22.50;;;;;21.25;68.51;100658.38;5035104;28;45425;-78
2023/06/13 04:54:40;;;;;;;;;29.75;27.50;;;;;21.18;68.38;100640.00;5034934;28;45343;-79
2023/06/13 04:57:05;;;;;;;;;31.00;26.00;;;;;21.30;68.39;100657.94;5036185;28;45458;-79
2023/06/13 04:59:31;;;;;;;;;20.00;19.50;;;;;21.31;68.33;100649.63;5044719;28;45315;-78
2023/06/13 05:01:56;;;;;;;;;28.25;26.25;;;;;21.28;67.96;100643.56;5039410;28;45487;-78
2023/06/13 05:04:21;;;;;;;;;29.00;24.50;;;;;21.29;67.88;100650.75;5034962;28;45553;-79
2023/06/13 05:06:47;;;;;;;;;26.00;25.00;;;;;21.31;67.75;100654.22;5034514;28;45493;-78
2023/06/13 05:09:14;;;;;;;;;27.25;26.25;;;;;21.31;67.91;100665.13;5034598;28;47686;-77
2023/06/13 05:11:41;;;;;;;;;30.50;28.50;;;;;21.29;68.26;100658.94;5047430;28;45582;-80
2023/06/13 05:14:07;;;;;;;;;29.25;23.50;;;;;21.24;67.99;100636.69;5046336;28;45532;-81
2023/06/13 05:16:34;;;;;;;;;25.25;25.00;;;;;21.37;67.74;100651.78;5034391;28;46646;-71
2023/06/13 05:19:00;;;;;;;;;35.75;32.25;;;;;21.36;67.82;100662.81;5034790;28;45177;-76
2023/06/13 05:21:31;;;;;;;;;26.25;24.50;;;;;21.35;67.70;100647.50;5033123;28;45462;-76
2023/06/13 05:23:58;;;;;;;;;21.75;21.00;;;;;21.31;68.01;100636.00;5016425;28;46866;-80
2023/06/13 05:26:23;;;;;;;;;30.25;23.50;;;;;21.36;67.50;100647.31;5034396;28;45393;-81
2023/06/13 05:28:48;;;;;;;;;27.25;26.00;;;;;21.31;67.33;100633.25;5034409;28;45177;-80
2023/06/13 05:31:14;;;;;;;;;18.25;18.25;;;;;21.46;67.61;100648.19;5034110;28;45382;-77
2023/06/13 05:33:40;;;;;;;;;27.00;24.25;;;;;21.61;67.24;100650.50;5041940;28;45318;-73
2023/06/13 05:36:05;;;;;;;;;23.50;22.75;;;;;21.67;67.29;100649.94;5053171;28;46286;-73
2023/06/13 05:38:31;;;;;;;;;27.75;22.25;;;;;21.63;66.84;100626.66;5033829;28;45300;-73
2023/06/13 05:40:56;;;;;;;;;29.25;26.25;;;;;21.78;66.92;100644.31;5034452;28;45411;-74
2023/06/13 05:43:22;;;;;;;;;29.00;27.75;;;;;21.78;67.12;100630.66;5034344;28;45456;-74
2023/06/13 05:45:48;;;;;;;;;25.75;25.25;;;;;21.89;66.54;100655.09;5034125;28;45943;-72
2023/06/13 05:48:13;;;;;;;;;34.00;27.25;;;;;21.80;66.05;100642.31;5034059;28;45393;-74
2023/06/13 05:50:40;;;;;;;;;26.50;25.75;;;;;21.85;66.30;100648.22;5034323;28;45206;-70
2023/06/13 05:53:06;;;;;;;;;29.50;27.75;;;;;21.86;66.26;100655.41;5034350;28;45553;-70
2023/06/13 05:55:31;;;;;;;;;27.00;24.75;;;;;21.93;66.21;100658.41;5034021;28;45551;-77
2023/06/13 05:57:57;;;;;;;;;24.00;24.00;;;;;21.96;66.40;100650.75;5037145;28;45385;-74
2023/06/13 06:00:22;;;;;;;;;33.00;26.50;;;;;22.04;65.94;100655.53;5047558;28;45381;-77
2023/06/13 06:02:47;;;;;;;;;28.25;24.75;;;;;22.06;65.87;100658.97;5033664;28;45361;-75
2023/06/13 06:05:13;;;;;;;;;28.50;27.00;;;;;22.09;65.81;100651.38;5034033;28;45340;-73
2023/06/13 06:07:43;;;;;;;;;27.50;23.75;;;;;22.13;65.34;100654.66;5033174;28;45346;-74
2023/06/13 06:10:10;;;;;;;;;30.75;25.00;;;;;22.15;65.32;100656.22;5033643;28;45405;-75
2023/06/13 06:12:35;;;;;;;;;24.00;22.50;;;;;22.16;65.14;100637.97;5050102;28;45465;-74
2023/06/13 06:15:01;;;;;;;;;32.00;27.75;;;;;22.25;65.14;100643.44;5045774;28;45948;-72
2023/06/13 06:17:27;;;;;;;;;23.25;23.25;;;;;22.32;65.26;100637.38;5045044;28;45324;-73
2023/06/13 06:19:52;;;;;;;;;32.50;27.50;;;;;22.33;64.72;100633.63;5045018;28;45172;-72
2023/06/13 06:22:18;;;;;;;;;23.75;23.75;;;;;22.39;64.51;100635.75;5044889;28;45499;-74
2023/06/13 06:24:43;;;;;;;;;29.75;25.50;;;;;22.47;64.97;100630.41;5043018;28;46236;-71
2023/06/13 06:27:11;;;;;;;;;20.25;16.50;;;;;22.60;64.16;100637.28;5042201;28;45593;-73
2023/06/13 06:29:36;;;;;;;;;27.75;22.25;;;;;22.73;63.26;100645.09;5043327;28;45405;-75
2023/06/13 06:32:02;;;;;;;;;29.75;25.75;;;;;22.83;62.91;100636.91;5042631;28;45575;-74
2023/06/13 06:34:27;;;;;;;;;24.00;24.00;;;;;22.92;62.30;100646.94;5035500;28;45823;-74
2023/06/13 06:36:52;;;;;;;;;30.75;23.75;;;;;23.01;61.80;100637.81;5033480;28;45414;-74
2023/06/13 06:39:19;;;;;;;;;29.75;26.00;;;;;23.06;61.69;100638.19;5033781;28;45483;-74
2023/06/13 06:41:44;;;;;;;;;29.00;27.00;;;;;23.12;61.60;100640.34;5033579;28;45489;-74
2023/06/13 06:44:10;;;;;;;;;27.50;25.75;;;;;23.21;60.95;100633.97;5033314;28;49427;-75
2023/06/13 06:46:36;;;;;;;;;22.25;21.75;;;;;23.24;60.01;100627.28;5033987;28;45254;-73
2023/06/13 06:49:01;;;;;;;;;23.00;19.50;;;;;23.43;59.81;100637.25;5033455;28;45521;-76
2023/06/13 06:51:27;;;;;;;;;24.75;22.00;;;;;23.53;59.12;100630.72;5034472;28;45540;-74
2023/06/13 06:53:52;;;;;;;;;23.00;22.25;;;;;23.64;58.62;100627.75;5034650;28;46186;-72
2023/06/13 06:56:17;;;;;;;;;23.25;22.50;;;;;23.72;58.16;100622.34;5035661;28;45335;-75
2023/06/13 06:58:43;;;;;;;;;20.75;19.25;;;;;23.82;56.82;100619.50;5041541;28;45350;-74
2023/06/13 07:01:08;;;;;;;;;21.00;19.50;;;;;23.91;56.16;100621.28;5048074;28;45260;-75
2023/06/13 07:03:35;;;;;;;;;18.75;17.00;;;;;23.98;54.72;100619.66;5037046;28;46037;-73
2023/06/13 07:06:01;;;;;;;;;17.00;17.00;;;;;24.02;55.32;100611.97;5037030;28;45351;-74
2023/06/13 07:08:27;;;;;;;;;21.25;18.50;;;;;24.08;53.80;100611.31;5036959;28;45511;-74
2023/06/13 07:10:52;;;;;;;;;20.50;17.00;;;;;24.17;53.60;100623.19;5042926;28;45569;-73
2023/06/13 07:13:17;;;;;;;;;19.50;19.25;;;;;24.21;52.46;100613.66;5055355;28;46304;-75
2023/06/13 07:15:42;;;;;;;;;16.00;15.00;;;;;24.26;52.37;100617.63;5036950;28;45400;-74
2023/06/13 07:18:08;;;;;;;;;16.00;16.00;;;;;24.28;51.21;100618.34;5036832;28;45433;-74
2023/06/13 07:20:33;;;;;;;;;19.00;17.25;;;;;24.33;50.42;100626.09;5036684;28;45330;-74
2023/06/13 07:22:58;;;;;;;;;15.50;13.75;;;;;24.40;50.52;100629.91;5036476;28;45438;-74
2023/06/13 07:25:24;;;;;;;;;17.50;17.25;;;;;24.41;50.46;100624.22;5036669;28;45339;-73
2023/06/13 07:27:49;;;;;;;;;16.75;16.75;;;;;24.46;49.82;100624.63;5036813;28;45827;-73
2023/06/13 07:30:15;;;;;;;;;16.75;16.75;;;;;24.47;49.12;100630.97;5036462;28;45561;-73
2023/06/13 07:32:40;;;;;;;;;17.75;15.50;;;;;24.49;49.00;100637.16;5036188;28;46015;-74
2023/06/13 07:35:06;;;;;;;;;20.50;15.00;;;;;24.47;48.56;100629.09;5055044;28;45421;-73
2023/06/13 07:37:31;;;;;;;;;19.75;19.50;;;;;24.51;49.08;100621.38;5042329;28;45338;-74
2023/06/13 07:39:56;;;;;;;;;18.75;17.25;;;;;24.53;48.80;100630.31;5036269;28;45477;-73
2023/06/13 07:42:22;;;;;;;;;23.75;17.25;;;;;24.42;48.16;100617.72;5036410;28;46164;-73
2023/06/13 07:44:47;;;;;;;;;22.25;18.50;;;;;24.48;48.12;100616.25;5034887;28;45303;-75
2023/06/13 07:47:13;;;;;;;;;22.25;17.50;;;;;24.60;48.12;100625.88;5036581;28;45434;-72
2023/06/13 07:49:38;;;;;;;;;21.50;18.50;;;;;24.61;48.00;100633.09;5036189;28;45298;-74
2023/06/13 07:52:04;;;;;;;;;18.75;17.75;;;;;24.65;47.95;100631.75;5036026;28;45910;-74
2023/06/13 07:54:30;;;;;;;;;18.00;13.25;;;;;24.68;48.08;100631.41;5036080;28;45303;-73
2023/06/13 07:56:57;;;;;;;;;17.50;16.25;;;;;24.71;47.82;100617.38;5039585;28;45520;-73
2023/06/13 07:59:23;;;;;;;;;19.25;16.50;;;;;24.75;47.89;100626.16;5056420;28;45413;-73
2023/06/13 08:01:48;;;;;;;;;23.50;19.75;;;;;24.77;47.31;100619.44;5041317;28;45429;-74
2023/06/13 08:04:14;;;;;;;;;20.75;19.25;;;;;24.76;48.07;100615.00;5017953;28;45309;-74
2023/06/13 08:06:39;;;;;;;;;19.25;16.50;;;;;24.82;47.55;100628.06;5035846;28;45761;-75
2023/06/13 08:09:08;;;;;;;;;24.25;17.00;;;;;24.89;47.70;100625.50;5035782;28;45374;-74
2023/06/13 08:11:34;;;;;;;;;19.25;16.50;;;;;24.93;48.03;100626.91;5047473;28;45363;-75
2023/06/13 08:13:59;;;;;;;;;19.00;16.25;;;;;24.95;47.83;100633.09;5047737;28;45267;-74
2023/06/13 08:16:25;;;;;;;;;23.00;17.75;;;;;25.02;47.66;100628.66;5035747;28;45491;-75
2023/06/13 08:18:50;;;;;;;;;14.50;13.75;;;;;25.10;47.47;100627.81;5035559;28;50680;-74
2023/06/13 08:21:15;;;;;;;;;17.75;16.50;;;;;25.13;46.88;100622.88;5035668;28;46275;-75
2023/06/13 08:23:41;;;;;;;;;15.75;14.50;;;;;25.18;47.42;100619.63;5035574;28;45330;-75
2023/06/13 08:26:06;;;;;;;;;15.75;13.00;;;;;25.17;46.65;100615.19;5035664;28;45357;-73
2023/06/13 08:28:31;;;;;;;;;17.50;17.50;;;;;25.15;46.85;100612.59;5035723;28;47936;-74
2023/06/13 08:30:56;;;;;;;;;19.50;16.50;;;;;25.21;47.24;100613.81;5035456;28;46077;-75
2023/06/13 08:33:22;;;;;;;;;12.00;12.00;;;;;25.22;46.97;100615.53;5039348;28;45410;-74
2023/06/13 08:35:47;;;;;;;;;17.00;16.25;;;;;25.24;46.95;100614.34;5055132;28;46725;-74
2023/06/13 08:38:12;;;;;;;;;16.00;16.00;;;;;25.27;46.44;100613.13;5035012;28;53242;-75
2023/06/13 08:40:39;;;;;;;;;22.75;18.50;;;;;25.30;45.63;100609.19;5035592;28;46056;-74
2023/06/13 08:43:04;;;;;;;;;19.50;18.25;;;;;25.30;45.11;100604.56;5035519;28;45414;-74
2023/06/13 08:45:30;;;;;;;;;19.75;17.50;;;;;25.30;44.82;100607.31;5035476;28;45425;-73
2023/06/13 08:47:57;;;;;;;;;18.75;16.75;;;;;25.33;44.86;100598.75;5035226;28;45600;-75
2023/06/13 08:50:24;;;;;;;;;21.50;19.00;;;;;25.30;44.53;100599.06;5035198;28;45477;-73
2023/06/13 08:52:50;;;;;;;;;19.75;16.50;;;;;25.30;44.32;100599.06;5035263;28;45418;-74
2023/06/13 08:55:24;;;;;;;;;18.00;15.50;;;;;25.36;43.39;100605.75;5035214;28;45406;-75
2023/06/13 08:57:52;;;;;;;;;17.50;15.50;;;;;25.37;42.82;100594.63;5045794;28;45363;-75
2023/06/13 09:00:18;;;;;;;;;17.75;17.75;;;;;25.38;42.28;100596.34;5053167;28;45923;-76
2023/06/13 09:02:46;;;;;;;;;20.75;17.25;;;;;25.40;42.19;100601.66;5034803;28;45382;-74
2023/06/13 09:05:17;;;;;;;;;17.00;14.50;;;;;25.42;42.19;100595.00;5035037;28;45290;-73
2023/06/13 09:07:43;;;;;;;;;18.00;17.00;;;;;25.42;41.91;100595.00;5034603;28;45382;-74
2023/06/13 09:10:11;;;;;;;;;19.50;18.00;;;;;25.51;41.49;100607.69;5033265;28;46214;-74
2023/06/13 09:12:40;;;;;;;;;16.25;16.00;;;;;25.47;40.36;100584.34;5055110;28;45252;-74
2023/06/13 09:15:06;;;;;;;;;18.25;16.50;;;;;25.60;40.91;100611.34;5037890;28;45391;-74
2023/06/13 09:17:32;;;;;;;;;18.00;16.25;;;;;25.62;40.17;100610.13;5034912;28;45491;-73
2023/06/13 09:19:57;;;;;;;;;17.50;12.50;;;;;25.61;40.47;100596.56;5033150;28;47136;-74
2023/06/13 09:22:23;;;;;;;;;18.25;16.75;;;;;25.68;39.88;100603.13;5034791;28;45407;-74
2023/06/13 09:24:50;;;;;;;;;17.25;17.25;;;;;25.70;40.67;100601.03;5034809;28;45232;-75
2023/06/13 09:27:15;;;;;;;;;16.00;14.25;;;;;25.76;39.95;100613.25;5016840;28;46038;-75
2023/06/13 09:29:41;;;;;;;;;17.25;17.25;;;;;25.76;40.40;100600.38;5034500;28;45531;-73
2023/06/13 09:32:09;;;;;;;;;21.25;21.25;;;;;25.78;40.41;100605.66;5034471;28;45290;-74
2023/06/13 09:34:37;;;;;;;;;20.25;18.00;;;;;25.74;39.89;100598.81;5048642;28;45383;-75
2023/06/13 09:37:02;;;;;;;;;17.50;17.50;;;;;25.71;39.89;100588.16;5044111;28;45408;-73
2023/06/13 09:39:31;;;;;;;;;19.25;17.00;;;;;25.82;39.41;100596.91;5034306;28;46216;-74
2023/06/13 09:41:59;;;;;;;;;17.75;16.50;;;;;25.81;39.81;100592.44;5049722;28;45980;-75
2023/06/13 09:44:25;;;;;;;;;15.50;14.75;;;;;25.85;38.92;100604.81;5034799;28;45289;-75
2023/06/13 09:46:51;;;;;;;;;18.50;17.25;;;;;25.91;39.40;100600.53;5034197;28;46124;-74
2023/06/13 09:49:18;;;;;;;;;14.50;13.75;;;;;25.93;39.23;100601.22;5033988;28;45323;-74
2023/06/13 09:51:45;;;;;;;;;16.00;14.75;;;;;25.96;38.64;100603.59;5033992;28;45305;-75
2023/06/13 09:54:10;;;;;;;;;21.75;17.25;;;;;25.92;38.57;100594.88;5034134;28;45390;-74
2023/06/13 09:56:36;;;;;;;;;18.25;16.50;;;;;25.96;37.59;100587.97;5034355;28;46014;-74
2023/06/13 09:59:01;;;;;;;;;15.00;15.00;;;;;26.03;38.10;100596.38;5041090;28;45265;-73
2023/06/13 10:01:29;;;;;;;;;15.75;15.75;;;;;26.05;37.57;100596.19;5052763;28;45926;-74
2023/06/13 10:03:55;;;;;;;;;12.75;12.75;;;;;26.09;37.17;100595.69;5054295;28;45353;-73
2023/06/13 10:06:22;;;;;;;;;17.25;15.25;;;;;26.15;37.29;100602.38;5054151;28;45378;-74
2023/06/13 10:08:48;;;;;;;;;17.75;15.50;;;;;26.16;36.71;100599.47;5053875;28;46378;-74
2023/06/13 10:11:21;;;;;;;;;15.50;15.50;;;;;26.24;36.91;100595.84;5045108;28;45372;-75
2023/06/13 10:13:54;;;;;;;;;19.50;18.00;;;;;26.25;35.97;100600.31;5034121;28;45462;-73
2023/06/13 10:16:21;;;;;;;;;18.00;15.25;;;;;26.29;35.83;100598.94;5034070;28;45552;-74
2023/06/13 10:18:48;;;;;;;;;16.00;15.00;;;;;26.30;36.17;100592.41;5034092;28;45401;-73
2023/06/13 10:21:16;;;;;;;;;13.00;13.00;;;;;26.35;36.71;100601.00;5033757;28;45339;-74
2023/06/13 10:23:45;;;;;;;;;15.75;14.50;;;;;26.39;36.78;100605.09;5032486;28;45534;-74
2023/06/13 10:26:16;;;;;;;;;18.00;15.75;;;;;26.43;36.38;100603.72;5034942;28;46185;-73
2023/06/13 10:28:50;;;;;;;;;18.25;17.25;;;;;26.44;36.17;100612.84;5037494;28;46463;-76
2023/06/13 10:31:38;;;;;;;;;23.00;18.25;;;;;26.45;36.39;100609.06;5037114;28;45465;-75
2023/06/13 10:34:12;;;;;;;;;19.25;15.50;;;;;26.46;36.24;100608.84;5047450;28;45503;-74
2023/06/13 10:37:12;;;;;;;;;16.00;14.75;;;;;26.49;36.04;100599.41;5037140;28;45717;-76
2023/06/13 10:40:13;;;;;;;;;15.00;14.50;;;;;26.51;36.72;100611.09;5033409;28;46056;-75
2023/06/13 10:42:49;;;;;;;;;20.00;14.50;;;;;26.54;37.27;100599.75;5023106;28;45387;-74
2023/06/13 10:45:23;;;;;;;;;14.50;13.75;;;;;26.55;36.48;100606.94;5057701;28;45350;-75
2023/06/13 10:47:48;;;;;;;;;16.50;13.00;;;;;26.56;36.23;100597.66;5057485;28;45500;-76
2023/06/13 10:50:15;;;;;;;;;18.25;16.00;;;;;26.53;36.39;100592.53;5057251;28;45264;-74
2023/06/13 10:52:48;;;;;;;;;17.25;16.25;;;;;26.58;35.48;100592.84;5057106;28;45618;-74
2023/06/13 10:55:27;;;;;;;;;15.25;13.25;;;;;26.52;35.99;100585.31;5057389;28;45249;-75
2023/06/13 10:57:56;;;;;;;;;19.75;16.25;;;;;26.59;36.44;100600.06;5047902;28;45559;-75
2023/06/13 11:00:27;;;;;;;;;16.00;16.00;;;;;26.66;35.84;100593.69;5047878;28;47180;-74
2023/06/13 11:03:06;;;;;;;;;16.25;16.00;;;;;26.66;35.21;100599.19;5037169;28;45467;-76
2023/06/13 11:05:46;;;;;;;;;18.00;16.50;;;;;26.65;36.05;100588.34;5036973;28;45259;-76
2023/06/13 11:08:15;;;;;;;;;16.75;15.25;;;;;26.71;36.68;100588.47;5036530;28;45458;-73
2023/06/13 11:10:45;;;;;;;;;18.50;18.25;;;;;26.80;36.30;100589.31;5040789;28;46619;-74
2023/06/13 11:13:21;;;;;;;;;16.50;16.50;;;;;26.86;35.51;100585.88;5055414;28;45279;-74
2023/06/13 11:15:47;;;;;;;;;16.25;15.00;;;;;26.88;35.53;100578.25;5036973;28;45461;-75
2023/06/13 11:18:14;;;;;;;;;17.25;14.00;;;;;26.90;35.30;100580.84;5036574;28;45466;-74
2023/06/13 11:20:54;;;;;;;;;16.75;15.25;;;;;26.95;35.98;100578.47;5036546;28;46452;-74
2023/06/13 11:23:35;;;;;;;;;15.25;14.75;;;;;27.01;35.76;100578.59;5036407;28;45275;-75
2023/06/13 11:26:00;;;;;;;;;18.50;18.50;;;;;27.05;34.88;100579.09;5035556;28;45516;-76
2023/06/13 11:28:26;;;;;;;;;17.25;15.25;;;;;27.02;34.67;100580.31;5043476;28;45593;-73
2023/06/13 11:30:52;;;;;;;;;15.50;15.50;;;;;27.06;34.26;100575.28;5056450;28;46103;-73
2023/06/13 11:33:19;;;;;;;;;15.00;14.00;;;;;27.16;34.59;100594.31;5052728;28;45513;-73
2023/06/13 11:35:49;;;;;;;;;14.50;14.50;;;;;27.25;33.92;100591.34;5036520;28;45376;-73
2023/06/13 11:38:20;;;;;;;;;17.25;16.00;;;;;27.38;33.17;100579.75;5035406;28;46051;-75
2023/06/13 11:40:51;;;;;;;;;16.00;16.00;;;;;27.36;31.83;100577.16;5034765;28;47539;-74
2023/06/13 11:43:17;;;;;;;;;14.00;12.75;;;;;27.36;32.52;100565.28;5036434;28;45390;-77
2023/06/13 11:45:45;;;;;;;;;12.00;12.00;;;;;27.50;32.45;100583.75;5036379;28;45477;-74
2023/06/13 11:48:11;;;;;;;;;10.75;9.75;;;;;27.55;32.44;100566.72;5034838;28;46202;-73
2023/06/13 11:50:37;;;;;;;;;15.00;12.00;;;;;27.55;31.64;100577.75;5034626;28;47225;-74
2023/06/13 11:53:04;;;;;;;;;11.75;10.50;;;;;27.58;31.17;100575.47;5035935;28;45398;-74
2023/06/13 11:55:30;;;;;;;;;13.75;13.75;;;;;27.68;31.77;100570.56;5036337;28;45504;-73
2023/06/13 11:57:56;;;;;;;;;14.50;11.75;;;;;27.79;30.90;100569.28;5037725;28;45314;-74
2023/06/13 12:00:25;;;;;;;;;12.75;10.75;;;;;27.83;29.57;100578.88;5049261;28;46161;-75
2023/06/13 12:02:55;;;;;;;;;15.00;10.25;;;;;27.94;30.56;100575.66;5036060;28;45356;-74
2023/06/13 12:05:21;;;;;;;;;11.75;11.75;;;;;27.99;30.52;100575.94;5035964;28;45391;-74
2023/06/13 12:07:48;;;;;;;;;15.00;13.75;;;;;28.02;30.57;100561.81;5035615;28;45492;-74
2023/06/13 12:10:13;;;;;;;;;16.25;14.50;;;;;28.14;29.97;100568.59;5052756;28;46108;-74
2023/06/13 12:12:39;;;;;;;;;10.75;10.75;;;;;28.13;30.44;100558.59;5056061;28;45346;-76
2023/06/13 12:15:07;;;;;;;;;14.50;12.00;;;;;28.29;29.82;100567.78;5039207;28;45243;-76
2023/06/13 12:17:33;;;;;;;;;12.25;11.50;;;;;28.32;29.74;100570.16;5035750;28;45560;-75
2023/06/13 12:20:11;;;;;;;;;13.00;13.00;;;;;28.37;30.65;100559.41;5035559;28;46001;-73
2023/06/13 12:22:37;;;;;;;;;13.50;12.25;;;;;28.40;30.51;100545.25;5035600;28;45309;-73
2023/06/13 12:25:04;;;;;;;;;12.75;12.75;;;;;28.42;30.44;100548.66;5035576;28;45914;-75
2023/06/13 12:27:30;;;;;;;;;13.75;13.75;;;;;28.41;30.56;100569.03;5035676;28;45565;-75
2023/06/13 12:29:57;;;;;;;;;13.50;12.00;;;;;28.35;30.25;100567.84;5035400;28;45422;-75
2023/06/13 12:32:25;;;;;;;;;12.50;12.50;;;;;28.31;29.98;100569.31;5033954;28;45543;-74
2023/06/13 12:34:51;;;;;;;;;16.75;15.25;;;;;28.38;30.07;100572.16;5051916;28;45414;-74
2023/06/13 12:37:17;;;;;;;;;15.50;15.50;;;;;28.34;29.56;100557.88;5070817;28;45310;-75
2023/06/13 12:40:12;;;;;;;;;11.25;11.25;;;;;28.50;30.05;100570.59;5048849;28;45947;-73
2023/06/13 12:42:42;;;;;;;;;13.50;12.75;;;;;28.59;29.92;100569.47;5034115;28;45316;-74
2023/06/13 12:45:10;;;;;;;;;14.00;11.00;;;;;28.65;30.44;100571.47;5035514;28;45327;-74
2023/06/13 12:47:36;;;;;;;;;13.50;12.25;;;;;28.63;29.66;100567.19;5039802;28;45548;-74
2023/06/13 12:50:08;;;;;;;;;14.50;12.50;;;;;28.62;29.89;100560.81;5042938;28;46293;-73
2023/06/13 12:52:35;;;;;;;;;13.00;11.25;;;;;28.65;30.26;100554.06;5035004;28;45397;-74
2023/06/13 12:55:01;;;;;;;;;13.50;13.50;;;;;28.56;29.13;100543.13;5034107;28;45453;-73
2023/06/13 12:57:27;;;;;;;;;16.25;12.75;;;;;28.59;29.57;100553.78;5037207;28;45572;-73
2023/06/13 12:59:53;;;;;;;;;17.00;13.50;;;;;28.67;28.93;100555.56;5042076;28;47397;-73
2023/06/13 13:02:22;;;;;;;;;15.25;12.75;;;;;28.72;28.73;100558.63;5038802;28;45419;-73
2023/06/13 13:04:49;;;;;;;;;11.75;10.00;;;;;28.78;28.84;100557.03;5042811;28;45337;-75
2023/06/13 13:07:15;;;;;;;;;12.00;12.00;;;;;28.85;28.08;100557.94;5034487;28;45305;-75
2023/06/13 13:09:43;;;;;;;;;13.25;11.75;;;;;28.96;28.38;100557.47;5034836;28;45309;-74
2023/06/13 13:12:09;;;;;;;;;17.50;13.25;;;;;29.05;28.62;100556.28;5051568;28;45286;-74
2023/06/13 13:14:35;;;;;;;;;13.25;12.50;;;;;29.13;28.36;100566.38;5041946;28;45296;-72
2023/06/13 13:17:02;;;;;;;;;13.00;12.50;;;;;29.26;28.52;100558.25;5040392;28;45546;-76
2023/06/13 13:19:28;;;;;;;;;9.50;9.25;;;;;29.40;28.26;100546.31;5054925;28;47220;-74
2023/06/13 13:21:54;;;;;;;;;12.75;12.50;;;;;29.46;28.51;100552.94;5054417;28;45322;-73
2023/06/13 13:24:19;;;;;;;;;15.75;14.00;;;;;29.51;27.95;100539.41;5055294;28;45454;-73
2023/06/13 13:26:47;;;;;;;;;21.75;18.25;;;;;29.65;28.20;100549.50;5054533;28;45567;-73
2023/06/13 13:29:12;;;;;;;;;14.00;11.25;;;;;29.83;27.91;100554.56;5054947;28;46130;-74
2023/06/13 13:31:38;;;;;;;;;13.50;13.25;;;;;29.86;27.23;100541.19;5054482;28;45196;-75
2023/06/13 13:34:04;;;;;;;;;10.50;10.00;;;;;29.82;27.21;100533.50;5045052;28;45533;-75
2023/06/13 13:36:30;;;;;;;;;15.00;14.50;;;;;29.84;27.74;100537.78;5034308;28;45955;-74
2023/06/13 13:38:55;;;;;;;;;13.00;13.00;;;;;29.78;27.29;100540.47;5034692;28;46152;-74
2023/06/13 13:41:21;;;;;;;;;13.00;12.00;;;;;29.88;27.65;100538.22;5034175;28;45284;-74
2023/06/13 13:43:46;;;;;;;;;13.00;12.25;;;;;29.94;26.81;100545.75;5034817;28;45339;-73
2023/06/13 13:46:12;;;;;;;;;15.50;12.00;;;;;29.94;27.32;100534.72;5034405;28;45591;-73
2023/06/13 13:48:41;;;;;;;;;12.00;11.25;;;;;30.05;27.76;100545.19;5034600;28;46060;-74
2023/06/13 13:51:06;;;;;;;;;10.75;8.25;;;;;30.20;27.72;100520.22;5034610;28;45292;-74
2023/06/13 13:53:32;;;;;;;;;14.00;13.75;;;;;30.35;26.36;100530.09;5034288;28;45176;-72
2023/06/13 13:55:57;;;;;;;;;11.75;11.75;;;;;30.40;26.71;100533.09;5034606;28;45289;-75
2023/06/13 13:58:22;;;;;;;;;8.50;8.50;;;;;30.46;25.96;100526.72;5035875;28;46244;-73
2023/06/13 14:00:48;;;;;;;;;13.00;13.00;;;;;30.42;25.67;100533.75;5047468;28;45267;-74
2023/06/13 14:03:13;;;;;;;;;14.75;13.00;;;;;30.35;25.92;100540.28;5034532;28;45560;-74
2023/06/13 14:05:39;;;;;;;;;14.25;13.00;;;;;30.27;25.55;100538.56;5032785;28;45723;-75
2023/06/13 14:08:06;;;;;;;;;14.75;13.50;;;;;30.21;25.89;100517.22;5033880;28;47213;-75
2023/06/13 14:10:31;;;;;;;;;14.00;12.25;;;;;30.26;25.53;100524.91;5037023;28;45317;-74
2023/06/13 14:12:56;;;;;;;;;16.00;14.25;;;;;30.33;25.80;100520.28;5054583;28;45486;-76
2023/06/13 14:15:21;;;;;;;;;10.25;9.25;;;;;30.26;25.56;100527.69;5034820;28;45561;-74
2023/06/13 14:17:47;;;;;;;;;16.50;14.50;;;;;30.19;25.71;100522.13;5047141;28;45374;-74
2023/06/13 14:20:12;;;;;;;;;14.75;14.75;;;;;30.14;26.25;100516.31;5048404;28;45337;-75
2023/06/13 14:22:42;;;;;;;;;16.75;16.00;;;;;30.08;25.75;100517.16;5034057;28;45362;-77
2023/06/13 14:25:07;;;;;;;;;14.50;12.50;;;;;30.19;25.90;100519.34;5034012;28;45645;-74
2023/06/13 14:27:33;;;;;;;;;12.25;12.00;;;;;30.27;25.82;100512.81;5034120;28;45469;-74
2023/06/13 14:29:58;;;;;;;;;15.50;13.75;;;;;30.25;25.05;100520.44;5033903;28;45331;-75
2023/06/13 14:32:23;;;;;;;;;19.00;16.75;;;;;30.16;25.36;100508.69;5034218;28;45474;-74
2023/06/13 14:34:49;;;;;;;;;14.50;14.50;;;;;30.15;25.17;100517.19;5048743;28;47645;-73
2023/06/13 14:37:14;;;;;;;;;12.50;12.50;;;;;30.19;25.17;100512.97;5053758;28;46066;-73
2023/06/13 14:39:40;;;;;;;;;19.00;13.75;;;;;30.18;25.25;100514.03;5053711;28;45165;-74
2023/06/13 14:42:05;;;;;;;;;14.25;11.00;;;;;30.16;24.69;100516.97;5054330;28;45327;-73
2023/06/13 14:44:31;;;;;;;;;18.25;15.00;;;;;30.21;25.05;100513.59;5053774;28;45291;-74
2023/06/13 14:46:56;;;;;;;;;18.75;15.00;;;;;30.30;25.16;100509.59;5054024;28;45893;-74
2023/06/13 14:49:22;;;;;;;;;11.25;10.25;;;;;30.41;24.60;100509.03;5053692;28;45292;-74
2023/06/13 14:51:47;;;;;;;;;9.75;8.75;;;;;30.37;24.66;100516.88;5053768;28;45342;-74
2023/06/13 14:54:14;;;;;;;;;11.25;11.25;;;;;30.47;24.96;100514.59;5053683;28;46502;-75
2023/06/13 14:56:39;;;;;;;;;12.25;10.25;;;;;30.57;24.65;100499.56;5053589;28;46092;-75
2023/06/13 14:59:04;;;;;;;;;11.25;10.25;;;;;30.72;24.39;100512.19;5039749;28;45355;-74
2023/06/13 15:01:32;;;;;;;;;12.50;12.50;;;;;30.70;24.08;100517.09;5042166;28;45423;-72
2023/06/13 15:04:00;;;;;;;;;15.50;12.50;;;;;30.62;23.69;100513.66;5032235;28;45672;-73
2023/06/13 15:06:27;;;;;;;;;13.75;12.50;;;;;30.59;23.46;100508.53;5033195;28;47414;-74
2023/06/13 15:08:52;;;;;;;;;15.25;13.00;;;;;30.66;23.72;100507.50;5033377;28;45402;-75
2023/06/13 15:11:18;;;;;;;;;5.25;4.25;;;;;30.78;23.62;100496.69;5042891;28;45382;-74
2023/06/13 15:13:43;;;;;;;;;13.75;13.50;;;;;30.76;23.64;100501.56;5051543;28;45354;-74
2023/06/13 15:16:08;;;;;;;;;14.75;13.50;;;;;30.76;23.74;100504.34;5036922;28;45378;-74
2023/06/13 15:18:36;;;;;;;;;13.25;10.75;;;;;30.55;23.14;100501.69;5036876;28;45441;-74
2023/06/13 15:21:02;;;;;;;;;13.25;11.50;;;;;30.54;23.89;100500.00;5036994;28;45362;-75
2023/06/13 15:23:28;;;;;;;;;14.25;12.25;;;;;30.52;23.44;100511.28;5036187;28;45220;-73
2023/06/13 15:25:54;;;;;;;;;12.00;11.00;;;;;30.60;23.70;100508.31;5034687;28;46624;-74
2023/06/13 15:28:19;;;;;;;;;13.25;11.50;;;;;30.68;23.79;100510.06;5036679;28;45383;-75
2023/06/13 15:30:44;;;;;;;;;13.25;13.25;;;;;30.77;23.94;100508.81;5036832;28;45264;-75
2023/06/13 15:33:10;;;;;;;;;11.50;11.50;;;;;30.67;23.96;100509.19;5038765;28;45348;-75
2023/06/13 15:35:35;;;;;;;;;9.25;9.00;;;;;30.52;24.08;100514.03;5068937;28;45975;-74
2023/06/13 15:38:00;;;;;;;;;13.50;11.50;;;;;30.49;23.96;100508.88;5054482;28;45441;-74
2023/06/13 15:40:26;;;;;;;;;13.00;13.00;;;;;30.60;24.02;100505.56;5055703;28;45262;-74